sensor_id;sensor_type;location;lat;lon;timestamp;P1;durP1;ratioP1;P2;durP2;ratioP2
40757;SDS011;26462;47.384;19.218;2023-09-19T00:00:39;8.30;;;3.50;;
40757;SDS011;26462;47.384;19.218;2023-09-19T00:03:09;6.68;;;3.47;;
40757;SDS011;26462;47.384;19.218;2023-09-19T00:05:37;5.80;;;3.25;;
40757;SDS011;26462;47.384;19.218;2023-09-19T00:08:05;9.95;;;3.75;;
40757;SDS011;26462;47.384;19.218;2023-09-19T00:10:33;6.85;;;3.30;;
40757;SDS011;26462;47.384;19.218;2023-09-19T00:13:03;7.55;;;3.35;;
40757;SDS011;26462;47.384;19.218;2023-09-19T00:15:36;9.30;;;5.00;;
40757;SDS011;26462;47.384;19.218;2023-09-19T00:18:08;7.28;;;3.40;;
40757;SDS011;26462;47.384;19.218;2023-09-19T00:20:36;10.10;;;4.00;;
40757;SDS011;26462;47.384;19.218;2023-09-19T00:23:05;8.73;;;3.55;;
40757;SDS011;26462;47.384;19.218;2023-09-19T00:25:35;6.47;;;3.22;;
40757;SDS011;26462;47.384;19.218;2023-09-19T00:28:04;6.40;;;3.72;;
40757;SDS011;26462;47.384;19.218;2023-09-19T00:30:36;6.88;;;3.30;;
40757;SDS011;26462;47.384;19.218;2023-09-19T00:33:05;6.65;;;3.38;;
40757;SDS011;26462;47.384;19.218;2023-09-19T00:35:34;7.97;;;3.95;;
40757;SDS011;26462;47.384;19.218;2023-09-19T00:38:01;7.80;;;3.65;;
40757;SDS011;26462;47.384;19.218;2023-09-19T00:40:29;8.95;;;4.22;;
40757;SDS011;26462;47.384;19.218;2023-09-19T00:42:57;9.73;;;3.60;;
40757;SDS011;26462;47.384;19.218;2023-09-19T00:45:28;5.13;;;3.20;;
40757;SDS011;26462;47.384;19.218;2023-09-19T00:47:56;21.70;;;4.53;;
40757;SDS011;26462;47.384;19.218;2023-09-19T00:50:25;9.23;;;4.40;;
40757;SDS011;26462;47.384;19.218;2023-09-19T00:52:54;5.28;;;3.58;;
40757;SDS011;26462;47.384;19.218;2023-09-19T00:55:25;11.35;;;3.78;;
40757;SDS011;26462;47.384;19.218;2023-09-19T00:57:52;8.45;;;3.63;;
40757;SDS011;26462;47.384;19.218;2023-09-19T01:00:23;5.95;;;4.22;;
40757;SDS011;26462;47.384;19.218;2023-09-19T01:02:51;7.93;;;4.07;;
40757;SDS011;26462;47.384;19.218;2023-09-19T01:05:19;6.28;;;3.45;;
40757;SDS011;26462;47.384;19.218;2023-09-19T01:07:46;7.75;;;3.53;;
40757;SDS011;26462;47.384;19.218;2023-09-19T01:10:17;7.15;;;3.65;;
40757;SDS011;26462;47.384;19.218;2023-09-19T01:13:05;8.38;;;3.45;;
40757;SDS011;26462;47.384;19.218;2023-09-19T01:16:03;9.13;;;3.53;;
40757;SDS011;26462;47.384;19.218;2023-09-19T01:29:44;5.07;;;3.63;;
40757;SDS011;26462;47.384;19.218;2023-09-19T01:32:15;8.32;;;4.18;;
40757;SDS011;26462;47.384;19.218;2023-09-19T01:34:49;8.63;;;4.60;;
40757;SDS011;26462;47.384;19.218;2023-09-19T01:37:20;6.15;;;3.65;;
40757;SDS011;26462;47.384;19.218;2023-09-19T01:39:53;6.28;;;3.72;;
40757;SDS011;26462;47.384;19.218;2023-09-19T01:47:55;8.68;;;3.65;;
40757;SDS011;26462;47.384;19.218;2023-09-19T01:50:32;9.98;;;3.85;;
40757;SDS011;26462;47.384;19.218;2023-09-19T01:53:22;14.48;;;5.22;;
40757;SDS011;26462;47.384;19.218;2023-09-19T01:55:54;6.50;;;3.83;;
40757;SDS011;26462;47.384;19.218;2023-09-19T02:01:16;7.10;;;3.75;;
40757;SDS011;26462;47.384;19.218;2023-09-19T02:03:49;6.50;;;4.10;;
40757;SDS011;26462;47.384;19.218;2023-09-19T02:06:18;7.00;;;3.85;;
40757;SDS011;26462;47.384;19.218;2023-09-19T02:08:45;6.75;;;3.83;;
40757;SDS011;26462;47.384;19.218;2023-09-19T02:11:13;9.57;;;4.20;;
40757;SDS011;26462;47.384;19.218;2023-09-19T02:13:42;7.43;;;3.22;;
40757;SDS011;26462;47.384;19.218;2023-09-19T02:16:10;7.40;;;4.47;;
40757;SDS011;26462;47.384;19.218;2023-09-19T02:18:39;11.30;;;5.05;;
40757;SDS011;26462;47.384;19.218;2023-09-19T02:21:06;6.30;;;3.55;;
40757;SDS011;26462;47.384;19.218;2023-09-19T02:23:33;5.43;;;3.63;;
40757;SDS011;26462;47.384;19.218;2023-09-19T02:26:00;9.82;;;4.70;;
40757;SDS011;26462;47.384;19.218;2023-09-19T02:28:27;6.75;;;3.55;;
40757;SDS011;26462;47.384;19.218;2023-09-19T02:30:57;8.70;;;3.97;;
40757;SDS011;26462;47.384;19.218;2023-09-19T02:33:25;7.13;;;4.07;;
40757;SDS011;26462;47.384;19.218;2023-09-19T02:35:56;6.72;;;3.78;;
40757;SDS011;26462;47.384;19.218;2023-09-19T02:38:27;6.72;;;3.60;;
40757;SDS011;26462;47.384;19.218;2023-09-19T02:40:55;7.55;;;4.25;;
40757;SDS011;26462;47.384;19.218;2023-09-19T02:43:23;10.38;;;4.53;;
40757;SDS011;26462;47.384;19.218;2023-09-19T02:45:51;9.18;;;4.15;;
40757;SDS011;26462;47.384;19.218;2023-09-19T02:48:20;5.97;;;3.65;;
40757;SDS011;26462;47.384;19.218;2023-09-19T02:50:51;7.63;;;4.43;;
40757;SDS011;26462;47.384;19.218;2023-09-19T02:53:18;8.43;;;4.10;;
40757;SDS011;26462;47.384;19.218;2023-09-19T02:55:49;6.97;;;4.00;;
40757;SDS011;26462;47.384;19.218;2023-09-19T02:58:16;9.75;;;3.95;;
40757;SDS011;26462;47.384;19.218;2023-09-19T03:00:45;6.47;;;4.05;;
40757;SDS011;26462;47.384;19.218;2023-09-19T03:03:15;6.30;;;3.75;;
40757;SDS011;26462;47.384;19.218;2023-09-19T03:05:45;6.50;;;3.85;;
40757;SDS011;26462;47.384;19.218;2023-09-19T03:08:16;6.35;;;3.70;;
40757;SDS011;26462;47.384;19.218;2023-09-19T03:10:46;7.82;;;4.32;;
40757;SDS011;26462;47.384;19.218;2023-09-19T03:13:17;7.53;;;3.95;;
40757;SDS011;26462;47.384;19.218;2023-09-19T03:15:45;5.72;;;3.88;;
40757;SDS011;26462;47.384;19.218;2023-09-19T03:18:16;8.43;;;4.15;;
40757;SDS011;26462;47.384;19.218;2023-09-19T03:20:51;7.40;;;4.22;;
40757;SDS011;26462;47.384;19.218;2023-09-19T03:23:22;6.93;;;3.92;;
40757;SDS011;26462;47.384;19.218;2023-09-19T03:25:50;9.48;;;3.78;;
40757;SDS011;26462;47.384;19.218;2023-09-19T03:28:19;4.53;;;3.80;;
40757;SDS011;26462;47.384;19.218;2023-09-19T03:31:01;9.65;;;4.35;;
40757;SDS011;26462;47.384;19.218;2023-09-19T03:33:32;8.10;;;4.28;;
40757;SDS011;26462;47.384;19.218;2023-09-19T03:36:01;8.40;;;3.75;;
40757;SDS011;26462;47.384;19.218;2023-09-19T03:38:32;9.57;;;4.90;;
40757;SDS011;26462;47.384;19.218;2023-09-19T03:41:01;8.27;;;4.57;;
40757;SDS011;26462;47.384;19.218;2023-09-19T03:43:29;7.20;;;3.55;;
40757;SDS011;26462;47.384;19.218;2023-09-19T03:46:01;9.15;;;4.35;;
40757;SDS011;26462;47.384;19.218;2023-09-19T03:48:31;8.02;;;3.92;;
40757;SDS011;26462;47.384;19.218;2023-09-19T03:51:00;8.68;;;4.00;;
40757;SDS011;26462;47.384;19.218;2023-09-19T03:53:28;8.60;;;4.10;;
40757;SDS011;26462;47.384;19.218;2023-09-19T03:55:56;5.68;;;3.83;;
40757;SDS011;26462;47.384;19.218;2023-09-19T03:58:23;9.18;;;4.20;;
40757;SDS011;26462;47.384;19.218;2023-09-19T04:00:54;8.73;;;4.28;;
40757;SDS011;26462;47.384;19.218;2023-09-19T04:03:23;7.00;;;3.88;;
40757;SDS011;26462;47.384;19.218;2023-09-19T04:05:55;8.18;;;4.30;;
40757;SDS011;26462;47.384;19.218;2023-09-19T04:08:22;6.65;;;3.65;;
40757;SDS011;26462;47.384;19.218;2023-09-19T04:10:49;9.00;;;3.85;;
40757;SDS011;26462;47.384;19.218;2023-09-19T04:13:18;10.55;;;4.75;;
40757;SDS011;26462;47.384;19.218;2023-09-19T04:15:45;6.93;;;3.88;;
40757;SDS011;26462;47.384;19.218;2023-09-19T04:18:13;11.43;;;5.28;;
40757;SDS011;26462;47.384;19.218;2023-09-19T04:20:41;8.23;;;4.68;;
40757;SDS011;26462;47.384;19.218;2023-09-19T04:23:08;10.35;;;4.38;;
40757;SDS011;26462;47.384;19.218;2023-09-19T04:25:37;8.52;;;4.40;;
40757;SDS011;26462;47.384;19.218;2023-09-19T04:28:04;11.02;;;5.00;;
40757;SDS011;26462;47.384;19.218;2023-09-19T04:30:33;8.32;;;4.45;;
40757;SDS011;26462;47.384;19.218;2023-09-19T04:33:00;6.88;;;4.32;;
40757;SDS011;26462;47.384;19.218;2023-09-19T04:35:32;8.77;;;4.30;;
40757;SDS011;26462;47.384;19.218;2023-09-19T04:37:59;12.27;;;5.03;;
40757;SDS011;26462;47.384;19.218;2023-09-19T04:40:26;9.82;;;4.28;;
40757;SDS011;26462;47.384;19.218;2023-09-19T04:42:54;6.88;;;4.32;;
40757;SDS011;26462;47.384;19.218;2023-09-19T04:45:27;9.00;;;4.50;;
40757;SDS011;26462;47.384;19.218;2023-09-19T04:47:55;10.43;;;4.43;;
40757;SDS011;26462;47.384;19.218;2023-09-19T04:50:23;6.68;;;4.05;;
40757;SDS011;26462;47.384;19.218;2023-09-19T04:52:53;6.90;;;4.20;;
40757;SDS011;26462;47.384;19.218;2023-09-19T04:55:20;7.43;;;4.18;;
40757;SDS011;26462;47.384;19.218;2023-09-19T04:57:48;9.50;;;4.90;;
40757;SDS011;26462;47.384;19.218;2023-09-19T05:00:17;12.70;;;5.03;;
40757;SDS011;26462;47.384;19.218;2023-09-19T05:02:50;9.70;;;4.80;;
40757;SDS011;26462;47.384;19.218;2023-09-19T05:05:18;6.65;;;4.18;;
40757;SDS011;26462;47.384;19.218;2023-09-19T05:07:46;9.77;;;4.88;;
40757;SDS011;26462;47.384;19.218;2023-09-19T05:10:13;12.93;;;5.80;;
40757;SDS011;26462;47.384;19.218;2023-09-19T05:12:41;11.07;;;5.00;;
40757;SDS011;26462;47.384;19.218;2023-09-19T05:15:11;8.82;;;5.18;;
40757;SDS011;26462;47.384;19.218;2023-09-19T05:17:39;7.50;;;4.22;;
40757;SDS011;26462;47.384;19.218;2023-09-19T05:20:06;4.80;;;1.85;;
40757;SDS011;26462;47.384;19.218;2023-09-19T05:22:42;2.92;;;1.08;;
40757;SDS011;26462;47.384;19.218;2023-09-19T05:25:10;3.08;;;0.90;;
40757;SDS011;26462;47.384;19.218;2023-09-19T05:27:37;2.38;;;0.65;;
40757;SDS011;26462;47.384;19.218;2023-09-19T05:30:04;2.22;;;0.30;;
40757;SDS011;26462;47.384;19.218;2023-09-19T05:32:33;1.65;;;0.30;;
40757;SDS011;26462;47.384;19.218;2023-09-19T05:35:00;3.03;;;0.30;;
40757;SDS011;26462;47.384;19.218;2023-09-19T05:37:27;3.33;;;0.40;;
40757;SDS011;26462;47.384;19.218;2023-09-19T05:39:56;3.95;;;0.30;;
40757;SDS011;26462;47.384;19.218;2023-09-19T05:42:24;0.70;;;0.20;;
40757;SDS011;26462;47.384;19.218;2023-09-19T05:44:51;2.03;;;0.30;;
40757;SDS011;26462;47.384;19.218;2023-09-19T05:47:18;3.38;;;0.20;;
40757;SDS011;26462;47.384;19.218;2023-09-19T05:49:45;2.67;;;0.20;;
40757;SDS011;26462;47.384;19.218;2023-09-19T05:52:14;1.10;;;0.22;;
40757;SDS011;26462;47.384;19.218;2023-09-19T05:54:42;2.75;;;0.30;;
40757;SDS011;26462;47.384;19.218;2023-09-19T05:57:10;1.55;;;0.10;;
40757;SDS011;26462;47.384;19.218;2023-09-19T05:59:38;1.88;;;0.10;;
40757;SDS011;26462;47.384;19.218;2023-09-19T06:02:06;3.20;;;0.50;;
40757;SDS011;26462;47.384;19.218;2023-09-19T06:04:34;2.70;;;0.13;;
40757;SDS011;26462;47.384;19.218;2023-09-19T06:07:01;1.27;;;0.10;;
40757;SDS011;26462;47.384;19.218;2023-09-19T06:09:29;0.63;;;0.10;;
40757;SDS011;26462;47.384;19.218;2023-09-19T06:11:58;0.88;;;0.10;;
40757;SDS011;26462;47.384;19.218;2023-09-19T06:14:29;1.00;;;0.10;;
40757;SDS011;26462;47.384;19.218;2023-09-19T06:16:57;3.10;;;0.55;;
40757;SDS011;26462;47.384;19.218;2023-09-19T06:19:24;2.17;;;0.20;;
40757;SDS011;26462;47.384;19.218;2023-09-19T06:21:52;0.93;;;0.10;;
40757;SDS011;26462;47.384;19.218;2023-09-19T06:24:22;1.95;;;0.20;;
40757;SDS011;26462;47.384;19.218;2023-09-19T06:26:49;1.75;;;0.00;;
40757;SDS011;26462;47.384;19.218;2023-09-19T06:29:16;1.42;;;0.30;;
40757;SDS011;26462;47.384;19.218;2023-09-19T06:31:43;1.10;;;0.10;;
40757;SDS011;26462;47.384;19.218;2023-09-19T06:34:11;0.68;;;0.10;;
40757;SDS011;26462;47.384;19.218;2023-09-19T06:36:41;1.15;;;0.10;;
40757;SDS011;26462;47.384;19.218;2023-09-19T06:39:09;0.60;;;0.10;;
40757;SDS011;26462;47.384;19.218;2023-09-19T06:41:37;1.50;;;0.10;;
40757;SDS011;26462;47.384;19.218;2023-09-19T06:44:09;0.77;;;0.10;;
40757;SDS011;26462;47.384;19.218;2023-09-19T06:46:36;0.50;;;0.10;;
40757;SDS011;26462;47.384;19.218;2023-09-19T06:49:05;0.98;;;0.30;;
40757;SDS011;26462;47.384;19.218;2023-09-19T06:51:33;0.95;;;0.10;;
40757;SDS011;26462;47.384;19.218;2023-09-19T06:54:01;0.63;;;0.10;;
40757;SDS011;26462;47.384;19.218;2023-09-19T06:56:28;1.80;;;0.35;;
40757;SDS011;26462;47.384;19.218;2023-09-19T06:58:55;3.35;;;0.20;;
40757;SDS011;26462;47.384;19.218;2023-09-19T07:01:23;0.73;;;0.43;;
40757;SDS011;26462;47.384;19.218;2023-09-19T07:03:50;0.75;;;0.20;;
40757;SDS011;26462;47.384;19.218;2023-09-19T07:06:18;0.85;;;0.10;;
40757;SDS011;26462;47.384;19.218;2023-09-19T07:08:46;1.23;;;0.20;;
40757;SDS011;26462;47.384;19.218;2023-09-19T07:11:13;1.20;;;0.20;;
40757;SDS011;26462;47.384;19.218;2023-09-19T07:13:40;1.35;;;0.10;;
40757;SDS011;26462;47.384;19.218;2023-09-19T07:16:08;2.00;;;0.20;;
40757;SDS011;26462;47.384;19.218;2023-09-19T07:18:37;2.85;;;0.17;;
40757;SDS011;26462;47.384;19.218;2023-09-19T07:21:04;1.08;;;0.20;;
40757;SDS011;26462;47.384;19.218;2023-09-19T07:23:32;0.88;;;0.10;;
40757;SDS011;26462;47.384;19.218;2023-09-19T07:26:01;1.13;;;0.20;;
40757;SDS011;26462;47.384;19.218;2023-09-19T07:28:32;1.17;;;0.20;;
40757;SDS011;26462;47.384;19.218;2023-09-19T07:31:03;1.25;;;0.20;;
40757;SDS011;26462;47.384;19.218;2023-09-19T07:33:31;0.53;;;0.10;;
40757;SDS011;26462;47.384;19.218;2023-09-19T07:35:58;0.85;;;0.10;;
40757;SDS011;26462;47.384;19.218;2023-09-19T07:38:27;0.70;;;0.10;;
40757;SDS011;26462;47.384;19.218;2023-09-19T07:41:04;1.20;;;0.22;;
40757;SDS011;26462;47.384;19.218;2023-09-19T07:43:31;0.95;;;0.10;;
40757;SDS011;26462;47.384;19.218;2023-09-19T07:46:06;0.20;;;0.10;;
40757;SDS011;26462;47.384;19.218;2023-09-19T07:48:35;1.50;;;0.10;;
40757;SDS011;26462;47.384;19.218;2023-09-19T07:51:08;0.30;;;0.20;;
40757;SDS011;26462;47.384;19.218;2023-09-19T07:53:35;4.95;;;0.55;;
40757;SDS011;26462;47.384;19.218;2023-09-19T07:56:07;0.90;;;0.10;;
40757;SDS011;26462;47.384;19.218;2023-09-19T07:58:38;0.75;;;0.10;;
40757;SDS011;26462;47.384;19.218;2023-09-19T08:01:07;0.22;;;0.10;;
40757;SDS011;26462;47.384;19.218;2023-09-19T08:03:36;0.70;;;0.20;;
40757;SDS011;26462;47.384;19.218;2023-09-19T08:06:08;0.70;;;0.10;;
40757;SDS011;26462;47.384;19.218;2023-09-19T08:08:36;2.58;;;0.20;;
40757;SDS011;26462;47.384;19.218;2023-09-19T08:11:04;1.55;;;0.32;;
40757;SDS011;26462;47.384;19.218;2023-09-19T08:13:39;2.83;;;0.30;;
40757;SDS011;26462;47.384;19.218;2023-09-19T08:16:10;1.10;;;0.20;;
40757;SDS011;26462;47.384;19.218;2023-09-19T08:18:38;1.35;;;0.20;;
40757;SDS011;26462;47.384;19.218;2023-09-19T08:21:08;1.15;;;0.20;;
40757;SDS011;26462;47.384;19.218;2023-09-19T08:23:40;0.73;;;0.10;;
40757;SDS011;26462;47.384;19.218;2023-09-19T08:26:07;0.63;;;0.10;;
40757;SDS011;26462;47.384;19.218;2023-09-19T08:28:35;1.52;;;0.55;;
40757;SDS011;26462;47.384;19.218;2023-09-19T08:31:04;0.75;;;0.10;;
40757;SDS011;26462;47.384;19.218;2023-09-19T08:33:32;2.33;;;0.20;;
40757;SDS011;26462;47.384;19.218;2023-09-19T08:36:02;0.88;;;0.20;;
40757;SDS011;26462;47.384;19.218;2023-09-19T08:38:33;1.80;;;0.10;;
40757;SDS011;26462;47.384;19.218;2023-09-19T08:41:04;1.00;;;0.30;;
40757;SDS011;26462;47.384;19.218;2023-09-19T08:43:34;2.97;;;0.20;;
40757;SDS011;26462;47.384;19.218;2023-09-19T08:48:32;1.58;;;0.30;;
40757;SDS011;26462;47.384;19.218;2023-09-19T08:51:07;1.90;;;0.20;;
40757;SDS011;26462;47.384;19.218;2023-09-19T08:53:42;1.77;;;0.30;;
40757;SDS011;26462;47.384;19.218;2023-09-19T08:56:19;1.27;;;0.20;;
40757;SDS011;26462;47.384;19.218;2023-09-19T09:01:28;1.88;;;0.20;;
40757;SDS011;26462;47.384;19.218;2023-09-19T09:03:59;1.25;;;0.20;;
40757;SDS011;26462;47.384;19.218;2023-09-19T09:06:28;0.90;;;0.43;;
40757;SDS011;26462;47.384;19.218;2023-09-19T09:08:56;1.38;;;0.40;;
40757;SDS011;26462;47.384;19.218;2023-09-19T09:11:24;1.15;;;0.40;;
40757;SDS011;26462;47.384;19.218;2023-09-19T09:13:52;0.95;;;0.30;;
40757;SDS011;26462;47.384;19.218;2023-09-19T09:16:19;1.10;;;0.30;;
40757;SDS011;26462;47.384;19.218;2023-09-19T09:18:46;1.45;;;0.30;;
40757;SDS011;26462;47.384;19.218;2023-09-19T09:21:21;1.27;;;0.30;;
40757;SDS011;26462;47.384;19.218;2023-09-19T09:23:51;3.22;;;0.40;;
40757;SDS011;26462;47.384;19.218;2023-09-19T09:27:02;2.20;;;0.50;;
40757;SDS011;26462;47.384;19.218;2023-09-19T09:29:12;1.38;;;0.30;;
40757;SDS011;26462;47.384;19.218;2023-09-19T09:31:45;1.40;;;0.20;;
40757;SDS011;26462;47.384;19.218;2023-09-19T09:34:12;1.10;;;0.40;;
40757;SDS011;26462;47.384;19.218;2023-09-19T09:36:40;1.95;;;0.22;;
40757;SDS011;26462;47.384;19.218;2023-09-19T09:39:08;2.25;;;0.50;;
40757;SDS011;26462;47.384;19.218;2023-09-19T09:41:45;0.95;;;0.40;;
40757;SDS011;26462;47.384;19.218;2023-09-19T09:44:13;1.63;;;0.30;;
40757;SDS011;26462;47.384;19.218;2023-09-19T09:46:46;2.95;;;0.60;;
40757;SDS011;26462;47.384;19.218;2023-09-19T09:49:34;2.92;;;0.30;;
40757;SDS011;26462;47.384;19.218;2023-09-19T09:52:03;1.95;;;0.40;;
40757;SDS011;26462;47.384;19.218;2023-09-19T09:55:00;0.50;;;0.20;;
40757;SDS011;26462;47.384;19.218;2023-09-19T09:57:33;1.95;;;0.50;;
40757;SDS011;26462;47.384;19.218;2023-09-19T10:00:01;1.75;;;0.80;;
40757;SDS011;26462;47.384;19.218;2023-09-19T10:02:39;2.10;;;0.80;;
40757;SDS011;26462;47.384;19.218;2023-09-19T10:05:18;2.35;;;0.43;;
40757;SDS011;26462;47.384;19.218;2023-09-19T10:07:47;3.95;;;0.80;;
40757;SDS011;26462;47.384;19.218;2023-09-19T10:10:29;1.67;;;0.70;;
40757;SDS011;26462;47.384;19.218;2023-09-19T10:13:13;2.97;;;0.88;;
40757;SDS011;26462;47.384;19.218;2023-09-19T10:15:47;2.85;;;1.05;;
40757;SDS011;26462;47.384;19.218;2023-09-19T10:18:21;2.30;;;1.33;;
40757;SDS011;26462;47.384;19.218;2023-09-19T10:20:50;2.90;;;1.10;;
40757;SDS011;26462;47.384;19.218;2023-09-19T10:23:18;2.00;;;1.15;;
40757;SDS011;26462;47.384;19.218;2023-09-19T10:28:19;3.83;;;0.98;;
40757;SDS011;26462;47.384;19.218;2023-09-19T10:30:50;2.70;;;1.08;;
40757;SDS011;26462;47.384;19.218;2023-09-19T10:33:20;2.65;;;1.50;;
40757;SDS011;26462;47.384;19.218;2023-09-19T10:35:49;2.67;;;1.10;;
40757;SDS011;26462;47.384;19.218;2023-09-19T10:38:23;3.35;;;1.20;;
40757;SDS011;26462;47.384;19.218;2023-09-19T10:40:55;2.58;;;1.20;;
40757;SDS011;26462;47.384;19.218;2023-09-19T10:43:30;5.28;;;1.63;;
40757;SDS011;26462;47.384;19.218;2023-09-19T10:46:02;2.75;;;1.42;;
40757;SDS011;26462;47.384;19.218;2023-09-19T10:48:34;2.72;;;1.40;;
40757;SDS011;26462;47.384;19.218;2023-09-19T10:51:06;2.63;;;1.30;;
40757;SDS011;26462;47.384;19.218;2023-09-19T10:56:26;2.50;;;1.33;;
40757;SDS011;26462;47.384;19.218;2023-09-19T10:59:14;2.40;;;1.42;;
40757;SDS011;26462;47.384;19.218;2023-09-19T11:01:48;3.72;;;1.65;;
40757;SDS011;26462;47.384;19.218;2023-09-19T11:04:37;2.58;;;1.75;;
40757;SDS011;26462;47.384;19.218;2023-09-19T11:07:07;1.83;;;1.38;;
40757;SDS011;26462;47.384;19.218;2023-09-19T11:09:55;4.85;;;1.95;;
40757;SDS011;26462;47.384;19.218;2023-09-19T11:15:07;3.10;;;1.58;;
40757;SDS011;26462;47.384;19.218;2023-09-19T11:17:43;2.75;;;1.63;;
40757;SDS011;26462;47.384;19.218;2023-09-19T11:30:45;1.60;;;1.33;;
40757;SDS011;26462;47.384;19.218;2023-09-19T11:33:18;3.72;;;1.42;;
40757;SDS011;26462;47.384;19.218;2023-09-19T11:49:19;2.40;;;0.73;;
40757;SDS011;26462;47.384;19.218;2023-09-19T11:51:57;1.73;;;0.35;;
40757;SDS011;26462;47.384;19.218;2023-09-19T11:54:27;1.48;;;0.38;;
40757;SDS011;26462;47.384;19.218;2023-09-19T11:56:58;0.80;;;0.40;;
40757;SDS011;26462;47.384;19.218;2023-09-19T11:59:27;1.40;;;0.30;;
40757;SDS011;26462;47.384;19.218;2023-09-19T12:02:05;1.05;;;0.20;;
40757;SDS011;26462;47.384;19.218;2023-09-19T12:07:08;1.52;;;0.20;;
40757;SDS011;26462;47.384;19.218;2023-09-19T12:09:47;2.83;;;1.00;;
40757;SDS011;26462;47.384;19.218;2023-09-19T12:12:20;0.98;;;0.30;;
40757;SDS011;26462;47.384;19.218;2023-09-19T12:14:54;0.45;;;0.20;;
40757;SDS011;26462;47.384;19.218;2023-09-19T12:20:03;1.25;;;0.20;;
40757;SDS011;26462;47.384;19.218;2023-09-19T12:25:10;2.15;;;0.30;;
40757;SDS011;26462;47.384;19.218;2023-09-19T12:27:42;0.80;;;0.30;;
40757;SDS011;26462;47.384;19.218;2023-09-19T12:30:10;1.55;;;0.30;;
40757;SDS011;26462;47.384;19.218;2023-09-19T12:32:53;1.73;;;0.28;;
40757;SDS011;26462;47.384;19.218;2023-09-19T12:35:29;2.50;;;0.30;;
40757;SDS011;26462;47.384;19.218;2023-09-19T12:37:58;2.67;;;0.95;;
40757;SDS011;26462;47.384;19.218;2023-09-19T12:40:26;0.65;;;0.20;;
40757;SDS011;26462;47.384;19.218;2023-09-19T12:42:59;1.67;;;0.20;;
40757;SDS011;26462;47.384;19.218;2023-09-19T12:45:32;1.58;;;0.30;;
40757;SDS011;26462;47.384;19.218;2023-09-19T12:53:37;1.02;;;0.30;;
40757;SDS011;26462;47.384;19.218;2023-09-19T12:56:11;1.85;;;0.40;;
40757;SDS011;26462;47.384;19.218;2023-09-19T13:01:17;1.88;;;0.40;;
40757;SDS011;26462;47.384;19.218;2023-09-19T13:03:45;2.72;;;0.47;;
40757;SDS011;26462;47.384;19.218;2023-09-19T13:06:12;1.80;;;0.40;;
40757;SDS011;26462;47.384;19.218;2023-09-19T13:08:43;2.25;;;0.40;;
40757;SDS011;26462;47.384;19.218;2023-09-19T13:11:16;1.63;;;0.50;;
40757;SDS011;26462;47.384;19.218;2023-09-19T13:13:48;3.28;;;0.40;;
40757;SDS011;26462;47.384;19.218;2023-09-19T13:16:21;1.40;;;0.30;;
40757;SDS011;26462;47.384;19.218;2023-09-19T13:18:50;1.50;;;0.50;;
40757;SDS011;26462;47.384;19.218;2023-09-19T13:24:21;1.88;;;0.20;;
40757;SDS011;26462;47.384;19.218;2023-09-19T13:26:52;2.08;;;0.50;;
40757;SDS011;26462;47.384;19.218;2023-09-19T13:29:20;2.22;;;0.30;;
40757;SDS011;26462;47.384;19.218;2023-09-19T13:31:47;3.63;;;0.30;;
40757;SDS011;26462;47.384;19.218;2023-09-19T13:34:15;1.38;;;0.20;;
40757;SDS011;26462;47.384;19.218;2023-09-19T13:36:44;2.65;;;0.30;;
40757;SDS011;26462;47.384;19.218;2023-09-19T13:39:12;1.23;;;0.32;;
40757;SDS011;26462;47.384;19.218;2023-09-19T13:41:46;0.75;;;0.20;;
40757;SDS011;26462;47.384;19.218;2023-09-19T13:44:14;0.93;;;0.20;;
40757;SDS011;26462;47.384;19.218;2023-09-19T13:46:43;0.90;;;0.22;;
40757;SDS011;26462;47.384;19.218;2023-09-19T13:49:13;4.05;;;0.32;;
40757;SDS011;26462;47.384;19.218;2023-09-19T13:51:42;0.90;;;0.30;;
40757;SDS011;26462;47.384;19.218;2023-09-19T13:54:11;1.17;;;0.30;;
40757;SDS011;26462;47.384;19.218;2023-09-19T13:56:41;4.35;;;0.30;;
40757;SDS011;26462;47.384;19.218;2023-09-19T13:59:09;1.10;;;0.20;;
40757;SDS011;26462;47.384;19.218;2023-09-19T14:01:36;0.95;;;0.30;;
40757;SDS011;26462;47.384;19.218;2023-09-19T14:04:04;1.88;;;0.32;;
40757;SDS011;26462;47.384;19.218;2023-09-19T14:06:32;2.40;;;0.22;;
40757;SDS011;26462;47.384;19.218;2023-09-19T14:08:59;2.63;;;0.30;;
40757;SDS011;26462;47.384;19.218;2023-09-19T14:11:28;2.10;;;0.40;;
40757;SDS011;26462;47.384;19.218;2023-09-19T14:13:55;0.90;;;0.30;;
40757;SDS011;26462;47.384;19.218;2023-09-19T14:16:23;2.08;;;0.38;;
40757;SDS011;26462;47.384;19.218;2023-09-19T14:18:51;0.75;;;0.30;;
40757;SDS011;26462;47.384;19.218;2023-09-19T14:21:19;1.98;;;0.30;;
40757;SDS011;26462;47.384;19.218;2023-09-19T14:23:48;1.45;;;0.77;;
40757;SDS011;26462;47.384;19.218;2023-09-19T14:26:16;3.80;;;0.50;;
40757;SDS011;26462;47.384;19.218;2023-09-19T14:28:44;1.08;;;0.20;;
40757;SDS011;26462;47.384;19.218;2023-09-19T14:31:12;2.95;;;0.38;;
40757;SDS011;26462;47.384;19.218;2023-09-19T14:33:39;1.05;;;0.30;;
40757;SDS011;26462;47.384;19.218;2023-09-19T14:36:07;1.88;;;0.43;;
40757;SDS011;26462;47.384;19.218;2023-09-19T14:38:39;1.48;;;0.30;;
40757;SDS011;26462;47.384;19.218;2023-09-19T14:41:06;1.05;;;0.38;;
40757;SDS011;26462;47.384;19.218;2023-09-19T14:43:36;3.65;;;0.47;;
40757;SDS011;26462;47.384;19.218;2023-09-19T14:46:04;0.90;;;0.20;;
40757;SDS011;26462;47.384;19.218;2023-09-19T14:48:34;1.05;;;0.35;;
40757;SDS011;26462;47.384;19.218;2023-09-19T14:51:02;1.70;;;0.30;;
40757;SDS011;26462;47.384;19.218;2023-09-19T14:53:30;2.22;;;0.45;;
40757;SDS011;26462;47.384;19.218;2023-09-19T14:56:02;2.88;;;0.30;;
40757;SDS011;26462;47.384;19.218;2023-09-19T14:58:30;2.10;;;0.63;;
40757;SDS011;26462;47.384;19.218;2023-09-19T15:01:02;2.03;;;0.38;;
40757;SDS011;26462;47.384;19.218;2023-09-19T15:03:34;1.40;;;0.40;;
40757;SDS011;26462;47.384;19.218;2023-09-19T15:06:07;3.67;;;1.25;;
40757;SDS011;26462;47.384;19.218;2023-09-19T15:08:36;2.63;;;0.30;;
40757;SDS011;26462;47.384;19.218;2023-09-19T15:11:07;1.05;;;0.40;;
40757;SDS011;26462;47.384;19.218;2023-09-19T15:13:35;0.65;;;0.40;;
40757;SDS011;26462;47.384;19.218;2023-09-19T15:16:03;0.98;;;0.30;;
40757;SDS011;26462;47.384;19.218;2023-09-19T15:18:37;1.23;;;0.30;;
40757;SDS011;26462;47.384;19.218;2023-09-19T15:21:06;2.95;;;0.55;;
40757;SDS011;26462;47.384;19.218;2023-09-19T15:23:36;1.92;;;0.57;;
40757;SDS011;26462;47.384;19.218;2023-09-19T15:26:04;1.17;;;0.45;;
40757;SDS011;26462;47.384;19.218;2023-09-19T15:28:33;1.98;;;0.30;;
40757;SDS011;26462;47.384;19.218;2023-09-19T15:31:01;1.48;;;0.45;;
40757;SDS011;26462;47.384;19.218;2023-09-19T15:33:32;1.02;;;0.30;;
40757;SDS011;26462;47.384;19.218;2023-09-19T15:38:31;3.95;;;0.40;;
40757;SDS011;26462;47.384;19.218;2023-09-19T15:41:20;2.15;;;0.50;;
40757;SDS011;26462;47.384;19.218;2023-09-19T15:43:47;2.17;;;0.40;;
40757;SDS011;26462;47.384;19.218;2023-09-19T15:46:15;1.30;;;0.30;;
40757;SDS011;26462;47.384;19.218;2023-09-19T15:48:43;1.63;;;0.45;;
40757;SDS011;26462;47.384;19.218;2023-09-19T15:51:11;1.50;;;0.20;;
40757;SDS011;26462;47.384;19.218;2023-09-19T15:53:44;2.58;;;0.57;;
40757;SDS011;26462;47.384;19.218;2023-09-19T15:56:16;2.60;;;0.40;;
40757;SDS011;26462;47.384;19.218;2023-09-19T15:58:44;1.85;;;0.40;;
40757;SDS011;26462;47.384;19.218;2023-09-19T16:01:14;1.50;;;0.30;;
40757;SDS011;26462;47.384;19.218;2023-09-19T16:03:46;1.02;;;0.30;;
40757;SDS011;26462;47.384;19.218;2023-09-19T16:06:15;1.02;;;0.30;;
40757;SDS011;26462;47.384;19.218;2023-09-19T16:08:47;1.42;;;0.30;;